Startpagina
METAR-TAF:

METAR-TAF

Vliegvelden :

London Biggin Hill Airport

Londen Biggin Hill, Engeland

breedte: 51-19N, lengte: 000-02E, hoogte: 183 m

Actueel weer

Dit bericht is 34 minuten geleden gemaakt, om 20:20 UTC
Wind 4 kt uit het westen, variërend tussen het westzuidwesten en het noordwesten
Temperatuur 7°C
Vochtigheid 66%
Druk 1024 hPa
Zicht 10 km of meer
geen wolken onder 1500 m en geen cumulonimbus

METAR: EGKB 232020Z 28004KT 250V310 CAVOK 07/01 Q1024

Tijdstip: 20:54 (20:54 UTC)

Verwachting

Dit bericht is 3 uur en het 52 minuten geleden gemaakt, om 17:02 UTC
Verwachting geldig van 23 om 18 UTC tot 23 om 22 UTC
Wind 10 kt uit het westnoordwesten
Zicht 10 km of meer
Verspreide wolken op 4000 ft
Wijzigt naar
van 23 om 20 UTC tot 23 om 22 UTC
Wind 3 kt uit variabele richting

TAF: EGKB 231702Z 2318/2322 30010KT 9999 SCT040 BECMG 2320/2322 VRB03KT

Waarnemingen en weersverwachtingen van meer dan 4000 vliegvelden (METAR en TAF).

De beschikbare stations zijn de gele en rode punten op de kaart.

Ga met uw muis naar het station om de naam te zien.

Klik dan om waarnemingen en weersverwachtingen te zien.

kaart wijzigen: klik op de groene knoppen met een zwart kruis om in te zoomen, op de groene knop met een streepje om uit te zoomen of op de groene pijlen voor aangrenzende kaarten.


METAR-TAF: